Share

Monroe, AR (72108)

Stuttgart Municipal (KSGT) Elev 223 ft | 34.60 °N, 91.57 °W | Change Station

Current weather conditions updated 16 minutes ago

Clear
Clear
59 °F
Feels Like 59 °F
N
4
Wind Variable Wind from NE
Sunrise 6:27 AM
Sunset 7:39 PM
Moon Waning Gibbous

Today is forecast to be Warmer than yesterday.

Pressure 30.20 in
Visibility 10.0 miles
Clouds Clear
Dew Point 52 °F
Humidity 77%
Rainfall 0.00 in
Snow Depth Not available.
UV 0 out of 16
Pollen 9.60 out of 12
Air Quality Not available.
Flu Activity Sporadic
METAR KSGT 190455Z AUTO 04003KT 10SM CLR 15/11 A3020 RMK AO1

More Conditions Fewer Conditions

Pressure 30.20 in
Visibility 10.0 miles
Clouds Clear
Dew Point 52 °F
Humidity 77%
Rainfall 0.00 in
Snow Depth Not available.
UV 0 out of 16
Pollen 9.60 out of 12
Air Quality Not available.
Flu Activity Sporadic
METAR KSGT 190455Z AUTO 04003KT 10SM CLR 15/11 A3020 RMK AO1

More Conditions Fewer Conditions

10-Day Weather Forecast

Almanac

Astronomy

Apr. 19, 2014 Rise Set
Actual Time 6:27 AM CDT 7:39 PM CDT
Civil Twilight 6:01 AM CDT 8:06 PM CDT
Nautical Twilight 5:30 AM CDT 8:37 PM CDT
Astronomical Twilight 4:58 AM CDT 9:09 PM CDT
Moon No Moon Rise 9:51 AM CDT
Length of Visible Light 14h 04m
Length of Day
13h 12m
Tomorrow will be 2m 2s longer.
Waning Gibbous, 83% of the Moon is Illuminated
Today
Waning Gibbous
Apr 22
Last Quarter
Apr 29
New
May 6
First Quarter
May 14
Full

Today's Extremes

State Highs State Lows

Community

  • Sunset Silhouettes
    Sunset Silhouettes
  • FL sunset Perico Isle
    FL sunset Perico Isle
  • Cloudy spring view
    Cloudy spring view
  • Old barn
    Old barn
  • What's for Lunch?
    What's for Lunch?

WunderPhotos

Upload Photos

1,702,645 photos uploaded!

WunderBlogs® & News

Nearby

Snow Depth

Station Depth Elevation
No new snow has been reported.

Coastal Water Temperatures

Place Temperature
No Stations Reporting

Earthquake Activity

City Distance Mag. Time & Date
No recent earthquake activity has been reported nearby.
Minimum magnitude displayed is 2.5.

Nearby Weather Stations

Station Location Temp. Dew Point Humidity Wind Precip. Elev Updated Type
MesoWest WHTLEY , Wheatley, AR 61 °F - - North  at  - 0.00 in / hr 208 ft 10:05 PM CDT MADIS
MesoWest ROE , Clarendon, AR 63 °F - - North  at  - 0.00 in / hr 182 ft 9:20 PM CDT MADIS
MesoWest FARGO , Hunter, AR 62 °F - - North  at  - 0.00 in / hr 212 ft 8:45 PM CDT MADIS
MesoWest BECKS , Madison, AR 67 °F - - North  at  - 0.00 in / hr 219 ft 9:50 PM CDT MADIS
MesoWest STGRTN , Ulm, AR 64 °F - - North  at  - 0.00 in / hr 209 ft 9:30 PM CDT MADIS

Show More Stations Show Fewer Stations

What do you think?

We're not finished. Please let us know what you like, what you don't like, and what you are still missing.